sensor_id;sensor_type;location;lat;lon;timestamp;P1;durP1;ratioP1;P2;durP2;ratioP2
62679;SDS011;68213;40.528;44.712;2023-08-20T00:00:19;9.30;;;2.50;;
62679;SDS011;68213;40.528;44.712;2023-08-20T00:01:27;6.32;;;2.67;;
62679;SDS011;68213;40.528;44.712;2023-08-20T00:02:28;13.02;;;3.10;;
62679;SDS011;68213;40.528;44.712;2023-08-20T00:03:32;11.25;;;2.80;;
62679;SDS011;68213;40.528;44.712;2023-08-20T00:04:33;8.48;;;2.60;;
62679;SDS011;68213;40.528;44.712;2023-08-20T00:05:37;5.03;;;2.75;;
62679;SDS011;68213;40.528;44.712;2023-08-20T00:06:39;7.22;;;2.40;;
62679;SDS011;68213;40.528;44.712;2023-08-20T00:07:40;7.68;;;2.67;;
62679;SDS011;68213;40.528;44.712;2023-08-20T00:08:43;9.38;;;2.67;;
62679;SDS011;68213;40.528;44.712;2023-08-20T00:09:44;5.78;;;2.78;;
62679;SDS011;68213;40.528;44.712;2023-08-20T00:10:47;9.68;;;2.90;;
62679;SDS011;68213;40.528;44.712;2023-08-20T00:11:48;7.85;;;2.80;;
62679;SDS011;68213;40.528;44.712;2023-08-20T00:12:49;8.32;;;2.65;;
62679;SDS011;68213;40.528;44.712;2023-08-20T00:13:50;4.80;;;2.70;;
62679;SDS011;68213;40.528;44.712;2023-08-20T00:14:54;7.15;;;3.00;;
62679;SDS011;68213;40.528;44.712;2023-08-20T00:15:58;5.18;;;2.50;;
62679;SDS011;68213;40.528;44.712;2023-08-20T00:16:59;6.05;;;2.95;;
62679;SDS011;68213;40.528;44.712;2023-08-20T00:18:00;5.65;;;2.80;;
62679;SDS011;68213;40.528;44.712;2023-08-20T00:19:01;4.25;;;2.90;;
62679;SDS011;68213;40.528;44.712;2023-08-20T00:20:03;9.65;;;2.70;;
62679;SDS011;68213;40.528;44.712;2023-08-20T00:21:10;8.85;;;2.58;;
62679;SDS011;68213;40.528;44.712;2023-08-20T00:22:11;4.15;;;2.45;;
62679;SDS011;68213;40.528;44.712;2023-08-20T00:23:12;5.45;;;2.90;;
62679;SDS011;68213;40.528;44.712;2023-08-20T00:24:16;5.53;;;2.58;;
62679;SDS011;68213;40.528;44.712;2023-08-20T00:25:28;7.30;;;2.47;;
62679;SDS011;68213;40.528;44.712;2023-08-20T00:26:31;6.97;;;2.75;;
62679;SDS011;68213;40.528;44.712;2023-08-20T00:27:32;6.93;;;2.88;;
62679;SDS011;68213;40.528;44.712;2023-08-20T00:28:33;8.38;;;3.20;;
62679;SDS011;68213;40.528;44.712;2023-08-20T00:29:34;8.23;;;2.50;;
62679;SDS011;68213;40.528;44.712;2023-08-20T00:30:34;7.10;;;2.58;;
62679;SDS011;68213;40.528;44.712;2023-08-20T00:31:35;5.57;;;2.47;;
62679;SDS011;68213;40.528;44.712;2023-08-20T00:32:36;7.70;;;2.63;;
62679;SDS011;68213;40.528;44.712;2023-08-20T00:33:38;8.02;;;2.88;;
62679;SDS011;68213;40.528;44.712;2023-08-20T00:34:39;5.85;;;2.92;;
62679;SDS011;68213;40.528;44.712;2023-08-20T00:35:40;6.47;;;2.63;;
62679;SDS011;68213;40.528;44.712;2023-08-20T00:36:41;5.85;;;2.88;;
62679;SDS011;68213;40.528;44.712;2023-08-20T00:37:41;4.53;;;2.42;;
62679;SDS011;68213;40.528;44.712;2023-08-20T00:38:45;9.27;;;2.47;;
62679;SDS011;68213;40.528;44.712;2023-08-20T00:39:45;6.82;;;2.67;;
62679;SDS011;68213;40.528;44.712;2023-08-20T00:40:46;7.50;;;2.58;;
62679;SDS011;68213;40.528;44.712;2023-08-20T00:41:47;9.45;;;3.15;;
62679;SDS011;68213;40.528;44.712;2023-08-20T00:42:47;4.63;;;2.80;;
62679;SDS011;68213;40.528;44.712;2023-08-20T00:43:48;6.90;;;2.92;;
62679;SDS011;68213;40.528;44.712;2023-08-20T00:44:49;6.18;;;2.60;;
62679;SDS011;68213;40.528;44.712;2023-08-20T00:45:49;8.80;;;3.13;;
62679;SDS011;68213;40.528;44.712;2023-08-20T00:46:50;9.45;;;2.70;;
62679;SDS011;68213;40.528;44.712;2023-08-20T00:47:51;7.55;;;2.55;;
62679;SDS011;68213;40.528;44.712;2023-08-20T00:48:53;5.20;;;2.83;;
62679;SDS011;68213;40.528;44.712;2023-08-20T00:49:53;5.97;;;2.55;;
62679;SDS011;68213;40.528;44.712;2023-08-20T00:50:54;5.25;;;2.30;;
62679;SDS011;68213;40.528;44.712;2023-08-20T00:51:55;10.70;;;2.70;;
62679;SDS011;68213;40.528;44.712;2023-08-20T00:52:56;4.13;;;2.35;;
62679;SDS011;68213;40.528;44.712;2023-08-20T00:53:57;6.60;;;2.85;;
62679;SDS011;68213;40.528;44.712;2023-08-20T00:54:58;6.47;;;2.97;;
62679;SDS011;68213;40.528;44.712;2023-08-20T00:55:59;7.93;;;2.63;;
62679;SDS011;68213;40.528;44.712;2023-08-20T00:56:59;8.20;;;3.17;;
62679;SDS011;68213;40.528;44.712;2023-08-20T00:58:02;8.30;;;3.03;;
62679;SDS011;68213;40.528;44.712;2023-08-20T01:00:06;7.28;;;2.75;;
62679;SDS011;68213;40.528;44.712;2023-08-20T01:01:09;10.07;;;2.78;;
62679;SDS011;68213;40.528;44.712;2023-08-20T01:02:10;9.13;;;2.65;;
62679;SDS011;68213;40.528;44.712;2023-08-20T01:03:13;8.90;;;2.80;;
62679;SDS011;68213;40.528;44.712;2023-08-20T01:04:14;5.82;;;2.72;;
62679;SDS011;68213;40.528;44.712;2023-08-20T01:05:14;8.68;;;2.88;;
62679;SDS011;68213;40.528;44.712;2023-08-20T01:06:20;10.20;;;3.00;;
62679;SDS011;68213;40.528;44.712;2023-08-20T01:07:33;6.57;;;2.80;;
62679;SDS011;68213;40.528;44.712;2023-08-20T01:08:45;9.85;;;2.47;;
62679;SDS011;68213;40.528;44.712;2023-08-20T01:11:02;11.50;;;2.70;;
62679;SDS011;68213;40.528;44.712;2023-08-20T01:12:07;5.55;;;2.63;;
62679;SDS011;68213;40.528;44.712;2023-08-20T01:13:10;7.75;;;2.60;;
62679;SDS011;68213;40.528;44.712;2023-08-20T01:14:14;13.82;;;3.00;;
62679;SDS011;68213;40.528;44.712;2023-08-20T01:15:16;9.50;;;2.72;;
62679;SDS011;68213;40.528;44.712;2023-08-20T01:16:17;6.63;;;3.00;;
62679;SDS011;68213;40.528;44.712;2023-08-20T01:17:17;5.13;;;2.80;;
62679;SDS011;68213;40.528;44.712;2023-08-20T01:18:18;8.35;;;2.75;;
62679;SDS011;68213;40.528;44.712;2023-08-20T01:19:20;6.13;;;2.80;;
62679;SDS011;68213;40.528;44.712;2023-08-20T01:20:22;5.97;;;2.22;;
62679;SDS011;68213;40.528;44.712;2023-08-20T01:21:34;5.10;;;2.60;;
62679;SDS011;68213;40.528;44.712;2023-08-20T01:25:32;7.43;;;2.60;;
62679;SDS011;68213;40.528;44.712;2023-08-20T01:28:58;9.40;;;2.65;;
62679;SDS011;68213;40.528;44.712;2023-08-20T01:29:59;5.95;;;2.70;;
62679;SDS011;68213;40.528;44.712;2023-08-20T01:31:00;5.97;;;2.70;;
62679;SDS011;68213;40.528;44.712;2023-08-20T01:32:03;6.28;;;2.88;;
62679;SDS011;68213;40.528;44.712;2023-08-20T01:33:05;6.30;;;2.70;;
62679;SDS011;68213;40.528;44.712;2023-08-20T01:34:07;7.95;;;2.50;;
62679;SDS011;68213;40.528;44.712;2023-08-20T01:35:13;11.23;;;2.40;;
62679;SDS011;68213;40.528;44.712;2023-08-20T01:36:16;6.10;;;2.72;;
62679;SDS011;68213;40.528;44.712;2023-08-20T01:37:17;4.43;;;2.83;;
62679;SDS011;68213;40.528;44.712;2023-08-20T01:38:17;9.15;;;2.88;;
62679;SDS011;68213;40.528;44.712;2023-08-20T01:39:18;6.50;;;2.40;;
62679;SDS011;68213;40.528;44.712;2023-08-20T01:40:19;6.15;;;3.15;;
62679;SDS011;68213;40.528;44.712;2023-08-20T01:41:20;8.55;;;2.55;;
62679;SDS011;68213;40.528;44.712;2023-08-20T01:42:20;7.22;;;2.30;;
62679;SDS011;68213;40.528;44.712;2023-08-20T01:43:21;11.77;;;2.90;;
62679;SDS011;68213;40.528;44.712;2023-08-20T01:44:22;5.82;;;2.30;;
62679;SDS011;68213;40.528;44.712;2023-08-20T01:45:23;5.30;;;2.65;;
62679;SDS011;68213;40.528;44.712;2023-08-20T01:46:23;5.13;;;2.40;;
62679;SDS011;68213;40.528;44.712;2023-08-20T01:47:24;6.53;;;2.80;;
62679;SDS011;68213;40.528;44.712;2023-08-20T01:48:25;4.93;;;2.47;;
62679;SDS011;68213;40.528;44.712;2023-08-20T01:49:25;7.28;;;2.60;;
62679;SDS011;68213;40.528;44.712;2023-08-20T01:50:26;6.50;;;2.30;;
62679;SDS011;68213;40.528;44.712;2023-08-20T01:51:27;7.43;;;2.53;;
62679;SDS011;68213;40.528;44.712;2023-08-20T01:52:28;5.38;;;2.60;;
62679;SDS011;68213;40.528;44.712;2023-08-20T01:53:29;9.30;;;2.90;;
62679;SDS011;68213;40.528;44.712;2023-08-20T01:54:30;4.53;;;2.38;;
62679;SDS011;68213;40.528;44.712;2023-08-20T01:55:31;6.15;;;2.65;;
62679;SDS011;68213;40.528;44.712;2023-08-20T01:56:31;9.68;;;2.80;;
62679;SDS011;68213;40.528;44.712;2023-08-20T01:57:32;6.35;;;2.35;;
62679;SDS011;68213;40.528;44.712;2023-08-20T01:58:33;8.00;;;2.50;;
62679;SDS011;68213;40.528;44.712;2023-08-20T01:59:33;4.05;;;2.60;;
62679;SDS011;68213;40.528;44.712;2023-08-20T02:00:34;7.50;;;2.95;;
62679;SDS011;68213;40.528;44.712;2023-08-20T02:01:35;4.63;;;2.40;;
62679;SDS011;68213;40.528;44.712;2023-08-20T02:02:36;7.97;;;2.78;;
62679;SDS011;68213;40.528;44.712;2023-08-20T02:03:36;7.60;;;2.38;;
62679;SDS011;68213;40.528;44.712;2023-08-20T02:04:40;7.03;;;2.35;;
62679;SDS011;68213;40.528;44.712;2023-08-20T02:05:40;6.65;;;2.15;;
62679;SDS011;68213;40.528;44.712;2023-08-20T02:06:43;4.45;;;2.13;;
62679;SDS011;68213;40.528;44.712;2023-08-20T02:07:43;5.28;;;2.17;;
62679;SDS011;68213;40.528;44.712;2023-08-20T02:08:44;7.63;;;2.83;;
62679;SDS011;68213;40.528;44.712;2023-08-20T02:09:45;7.25;;;2.55;;
62679;SDS011;68213;40.528;44.712;2023-08-20T02:10:45;4.75;;;2.33;;
62679;SDS011;68213;40.528;44.712;2023-08-20T02:11:46;4.57;;;2.15;;
62679;SDS011;68213;40.528;44.712;2023-08-20T02:12:47;5.85;;;2.50;;
62679;SDS011;68213;40.528;44.712;2023-08-20T02:14:52;4.70;;;2.00;;
62679;SDS011;68213;40.528;44.712;2023-08-20T02:15:57;4.70;;;2.22;;
62679;SDS011;68213;40.528;44.712;2023-08-20T02:17:19;4.93;;;2.13;;
62679;SDS011;68213;40.528;44.712;2023-08-20T02:18:20;4.65;;;2.30;;
62679;SDS011;68213;40.528;44.712;2023-08-20T02:19:20;6.28;;;2.10;;
62679;SDS011;68213;40.528;44.712;2023-08-20T02:20:21;3.58;;;2.20;;
62679;SDS011;68213;40.528;44.712;2023-08-20T02:21:21;7.13;;;1.90;;
62679;SDS011;68213;40.528;44.712;2023-08-20T02:22:22;5.07;;;2.08;;
62679;SDS011;68213;40.528;44.712;2023-08-20T02:23:23;6.93;;;2.00;;
62679;SDS011;68213;40.528;44.712;2023-08-20T02:24:24;3.80;;;1.75;;
62679;SDS011;68213;40.528;44.712;2023-08-20T02:25:25;5.28;;;2.13;;
62679;SDS011;68213;40.528;44.712;2023-08-20T02:26:26;5.65;;;2.30;;
62679;SDS011;68213;40.528;44.712;2023-08-20T02:27:26;4.90;;;1.98;;
62679;SDS011;68213;40.528;44.712;2023-08-20T02:28:27;4.70;;;2.05;;
62679;SDS011;68213;40.528;44.712;2023-08-20T02:29:28;6.40;;;2.38;;
62679;SDS011;68213;40.528;44.712;2023-08-20T02:30:28;3.42;;;2.05;;
62679;SDS011;68213;40.528;44.712;2023-08-20T02:31:29;5.93;;;2.30;;
62679;SDS011;68213;40.528;44.712;2023-08-20T02:32:29;6.55;;;2.05;;
62679;SDS011;68213;40.528;44.712;2023-08-20T02:33:32;4.15;;;2.20;;
62679;SDS011;68213;40.528;44.712;2023-08-20T02:34:32;4.95;;;1.80;;
62679;SDS011;68213;40.528;44.712;2023-08-20T02:35:33;6.47;;;2.13;;
62679;SDS011;68213;40.528;44.712;2023-08-20T02:36:34;2.55;;;1.95;;
62679;SDS011;68213;40.528;44.712;2023-08-20T02:37:34;4.32;;;2.10;;
62679;SDS011;68213;40.528;44.712;2023-08-20T02:38:36;3.33;;;1.77;;
62679;SDS011;68213;40.528;44.712;2023-08-20T02:39:37;3.50;;;1.98;;
62679;SDS011;68213;40.528;44.712;2023-08-20T02:40:41;6.75;;;2.15;;
62679;SDS011;68213;40.528;44.712;2023-08-20T02:41:42;6.75;;;2.30;;
62679;SDS011;68213;40.528;44.712;2023-08-20T02:42:42;5.82;;;1.90;;
62679;SDS011;68213;40.528;44.712;2023-08-20T02:43:43;3.72;;;2.10;;
62679;SDS011;68213;40.528;44.712;2023-08-20T02:44:44;5.45;;;2.20;;
62679;SDS011;68213;40.528;44.712;2023-08-20T02:45:44;3.30;;;2.10;;
62679;SDS011;68213;40.528;44.712;2023-08-20T02:46:45;5.95;;;2.00;;
62679;SDS011;68213;40.528;44.712;2023-08-20T02:47:46;4.15;;;2.10;;
62679;SDS011;68213;40.528;44.712;2023-08-20T02:48:46;3.47;;;1.83;;
62679;SDS011;68213;40.528;44.712;2023-08-20T02:49:47;3.45;;;2.20;;
62679;SDS011;68213;40.528;44.712;2023-08-20T02:50:53;8.98;;;2.08;;
62679;SDS011;68213;40.528;44.712;2023-08-20T02:51:54;2.80;;;1.75;;
62679;SDS011;68213;40.528;44.712;2023-08-20T02:52:55;2.88;;;2.17;;
62679;SDS011;68213;40.528;44.712;2023-08-20T02:53:55;4.88;;;1.80;;
62679;SDS011;68213;40.528;44.712;2023-08-20T02:54:56;4.32;;;2.08;;
62679;SDS011;68213;40.528;44.712;2023-08-20T02:55:56;2.15;;;1.65;;
62679;SDS011;68213;40.528;44.712;2023-08-20T02:56:58;4.97;;;2.28;;
62679;SDS011;68213;40.528;44.712;2023-08-20T02:57:59;3.65;;;1.88;;
62679;SDS011;68213;40.528;44.712;2023-08-20T02:59:00;3.03;;;1.85;;
62679;SDS011;68213;40.528;44.712;2023-08-20T03:00:00;2.97;;;1.73;;
62679;SDS011;68213;40.528;44.712;2023-08-20T03:01:01;4.50;;;2.20;;
62679;SDS011;68213;40.528;44.712;2023-08-20T03:02:02;6.80;;;1.95;;
62679;SDS011;68213;40.528;44.712;2023-08-20T03:03:03;3.60;;;1.88;;
62679;SDS011;68213;40.528;44.712;2023-08-20T03:04:11;2.97;;;2.08;;
62679;SDS011;68213;40.528;44.712;2023-08-20T03:05:12;5.40;;;2.00;;
62679;SDS011;68213;40.528;44.712;2023-08-20T03:06:12;3.00;;;1.85;;
62679;SDS011;68213;40.528;44.712;2023-08-20T03:07:13;3.03;;;1.77;;
62679;SDS011;68213;40.528;44.712;2023-08-20T03:08:14;2.97;;;1.45;;
62679;SDS011;68213;40.528;44.712;2023-08-20T03:09:14;5.40;;;2.15;;
62679;SDS011;68213;40.528;44.712;2023-08-20T03:10:16;2.67;;;2.03;;
62679;SDS011;68213;40.528;44.712;2023-08-20T03:11:17;3.17;;;1.88;;
62679;SDS011;68213;40.528;44.712;2023-08-20T03:12:17;4.22;;;1.60;;
62679;SDS011;68213;40.528;44.712;2023-08-20T03:13:18;7.35;;;2.20;;
62679;SDS011;68213;40.528;44.712;2023-08-20T03:14:19;3.28;;;1.80;;
62679;SDS011;68213;40.528;44.712;2023-08-20T03:15:20;4.70;;;2.00;;
62679;SDS011;68213;40.528;44.712;2023-08-20T03:16:20;4.43;;;1.80;;
62679;SDS011;68213;40.528;44.712;2023-08-20T03:17:21;2.83;;;2.10;;
62679;SDS011;68213;40.528;44.712;2023-08-20T03:18:21;2.55;;;1.65;;
62679;SDS011;68213;40.528;44.712;2023-08-20T03:19:22;4.72;;;1.60;;
62679;SDS011;68213;40.528;44.712;2023-08-20T03:20:23;4.50;;;2.08;;
62679;SDS011;68213;40.528;44.712;2023-08-20T03:21:23;5.35;;;2.00;;
62679;SDS011;68213;40.528;44.712;2023-08-20T03:22:25;2.20;;;1.73;;
62679;SDS011;68213;40.528;44.712;2023-08-20T03:23:26;3.78;;;2.00;;
62679;SDS011;68213;40.528;44.712;2023-08-20T03:24:27;3.22;;;1.77;;
62679;SDS011;68213;40.528;44.712;2023-08-20T03:25:27;13.80;;;2.47;;
62679;SDS011;68213;40.528;44.712;2023-08-20T03:26:28;8.43;;;2.25;;
62679;SDS011;68213;40.528;44.712;2023-08-20T03:27:29;7.97;;;2.22;;
62679;SDS011;68213;40.528;44.712;2023-08-20T03:28:29;9.23;;;1.92;;
62679;SDS011;68213;40.528;44.712;2023-08-20T03:29:30;10.18;;;2.20;;
62679;SDS011;68213;40.528;44.712;2023-08-20T03:30:31;3.72;;;2.10;;
62679;SDS011;68213;40.528;44.712;2023-08-20T03:31:31;5.45;;;2.28;;
62679;SDS011;68213;40.528;44.712;2023-08-20T03:32:32;3.45;;;1.70;;
62679;SDS011;68213;40.528;44.712;2023-08-20T03:33:33;3.13;;;2.10;;
62679;SDS011;68213;40.528;44.712;2023-08-20T03:34:33;2.58;;;1.77;;
62679;SDS011;68213;40.528;44.712;2023-08-20T03:35:34;2.38;;;1.95;;
62679;SDS011;68213;40.528;44.712;2023-08-20T03:36:38;4.80;;;1.65;;
62679;SDS011;68213;40.528;44.712;2023-08-20T03:37:39;6.28;;;2.22;;
62679;SDS011;68213;40.528;44.712;2023-08-20T03:38:40;6.22;;;2.10;;
62679;SDS011;68213;40.528;44.712;2023-08-20T03:39:40;4.80;;;1.88;;
62679;SDS011;68213;40.528;44.712;2023-08-20T03:40:41;3.65;;;2.05;;
62679;SDS011;68213;40.528;44.712;2023-08-20T03:41:42;4.00;;;2.08;;
62679;SDS011;68213;40.528;44.712;2023-08-20T03:42:42;3.25;;;2.03;;
62679;SDS011;68213;40.528;44.712;2023-08-20T03:43:43;7.18;;;2.30;;
62679;SDS011;68213;40.528;44.712;2023-08-20T03:44:43;5.20;;;1.98;;
62679;SDS011;68213;40.528;44.712;2023-08-20T03:45:44;7.13;;;2.03;;
62679;SDS011;68213;40.528;44.712;2023-08-20T03:46:45;4.90;;;2.28;;
62679;SDS011;68213;40.528;44.712;2023-08-20T03:47:45;5.00;;;1.88;;
62679;SDS011;68213;40.528;44.712;2023-08-20T03:48:47;2.60;;;1.83;;
62679;SDS011;68213;40.528;44.712;2023-08-20T03:49:50;3.80;;;1.90;;
62679;SDS011;68213;40.528;44.712;2023-08-20T03:50:51;6.00;;;2.10;;
62679;SDS011;68213;40.528;44.712;2023-08-20T03:51:51;6.45;;;2.25;;
62679;SDS011;68213;40.528;44.712;2023-08-20T03:52:52;4.53;;;1.95;;
62679;SDS011;68213;40.528;44.712;2023-08-20T03:53:52;5.82;;;2.42;;
62679;SDS011;68213;40.528;44.712;2023-08-20T03:54:53;8.98;;;2.10;;
62679;SDS011;68213;40.528;44.712;2023-08-20T03:55:54;6.30;;;2.17;;
62679;SDS011;68213;40.528;44.712;2023-08-20T03:56:54;3.47;;;2.10;;
62679;SDS011;68213;40.528;44.712;2023-08-20T03:57:55;4.32;;;2.30;;
62679;SDS011;68213;40.528;44.712;2023-08-20T03:58:56;4.68;;;2.20;;
62679;SDS011;68213;40.528;44.712;2023-08-20T03:59:57;8.25;;;2.30;;
62679;SDS011;68213;40.528;44.712;2023-08-20T04:00:57;4.93;;;2.22;;
62679;SDS011;68213;40.528;44.712;2023-08-20T04:01:58;3.08;;;2.17;;
62679;SDS011;68213;40.528;44.712;2023-08-20T04:02:59;8.65;;;2.38;;
62679;SDS011;68213;40.528;44.712;2023-08-20T04:03:59;5.82;;;2.60;;
62679;SDS011;68213;40.528;44.712;2023-08-20T04:05:00;3.78;;;2.08;;
62679;SDS011;68213;40.528;44.712;2023-08-20T04:06:00;2.58;;;2.00;;
62679;SDS011;68213;40.528;44.712;2023-08-20T04:07:01;2.92;;;2.00;;
62679;SDS011;68213;40.528;44.712;2023-08-20T04:08:02;5.90;;;1.92;;
62679;SDS011;68213;40.528;44.712;2023-08-20T04:09:04;4.47;;;1.98;;
62679;SDS011;68213;40.528;44.712;2023-08-20T04:10:07;3.05;;;1.90;;
62679;SDS011;68213;40.528;44.712;2023-08-20T04:11:08;4.32;;;2.33;;
62679;SDS011;68213;40.528;44.712;2023-08-20T04:12:09;6.55;;;2.35;;
62679;SDS011;68213;40.528;44.712;2023-08-20T04:13:10;5.10;;;2.05;;
62679;SDS011;68213;40.528;44.712;2023-08-20T04:14:11;5.68;;;2.25;;
62679;SDS011;68213;40.528;44.712;2023-08-20T04:15:11;6.35;;;2.90;;
62679;SDS011;68213;40.528;44.712;2023-08-20T04:16:12;4.35;;;2.30;;
62679;SDS011;68213;40.528;44.712;2023-08-20T04:17:13;5.22;;;2.08;;
62679;SDS011;68213;40.528;44.712;2023-08-20T04:18:14;5.57;;;2.10;;
62679;SDS011;68213;40.528;44.712;2023-08-20T04:19:15;3.75;;;2.22;;
62679;SDS011;68213;40.528;44.712;2023-08-20T04:20:15;8.02;;;2.28;;
62679;SDS011;68213;40.528;44.712;2023-08-20T04:21:16;4.00;;;2.28;;
62679;SDS011;68213;40.528;44.712;2023-08-20T04:22:16;4.95;;;2.35;;
62679;SDS011;68213;40.528;44.712;2023-08-20T04:23:18;4.75;;;2.20;;
62679;SDS011;68213;40.528;44.712;2023-08-20T04:24:19;4.82;;;2.30;;
62679;SDS011;68213;40.528;44.712;2023-08-20T04:25:20;6.22;;;2.50;;
62679;SDS011;68213;40.528;44.712;2023-08-20T04:26:23;6.53;;;2.22;;
62679;SDS011;68213;40.528;44.712;2023-08-20T04:27:23;5.47;;;2.30;;
62679;SDS011;68213;40.528;44.712;2023-08-20T04:28:27;6.38;;;2.38;;
62679;SDS011;68213;40.528;44.712;2023-08-20T04:29:28;6.50;;;2.30;;
62679;SDS011;68213;40.528;44.712;2023-08-20T04:30:29;4.50;;;2.00;;
62679;SDS011;68213;40.528;44.712;2023-08-20T04:31:29;5.18;;;2.33;;
62679;SDS011;68213;40.528;44.712;2023-08-20T04:32:30;6.03;;;2.70;;
62679;SDS011;68213;40.528;44.712;2023-08-20T04:33:31;11.57;;;2.72;;
62679;SDS011;68213;40.528;44.712;2023-08-20T04:34:31;3.58;;;2.40;;
62679;SDS011;68213;40.528;44.712;2023-08-20T04:35:33;5.35;;;2.10;;
62679;SDS011;68213;40.528;44.712;2023-08-20T04:36:36;4.93;;;2.10;;
62679;SDS011;68213;40.528;44.712;2023-08-20T04:37:37;8.55;;;2.40;;
62679;SDS011;68213;40.528;44.712;2023-08-20T04:38:38;3.90;;;2.33;;
62679;SDS011;68213;40.528;44.712;2023-08-20T04:39:38;6.93;;;3.20;;
62679;SDS011;68213;40.528;44.712;2023-08-20T04:40:39;8.38;;;2.67;;
62679;SDS011;68213;40.528;44.712;2023-08-20T04:41:39;5.13;;;2.28;;
62679;SDS011;68213;40.528;44.712;2023-08-20T04:42:42;3.60;;;2.38;;
62679;SDS011;68213;40.528;44.712;2023-08-20T04:43:43;5.57;;;2.40;;
62679;SDS011;68213;40.528;44.712;2023-08-20T04:44:44;4.85;;;2.33;;
62679;SDS011;68213;40.528;44.712;2023-08-20T04:45:44;6.70;;;2.30;;
62679;SDS011;68213;40.528;44.712;2023-08-20T04:46:47;6.45;;;1.90;;
62679;SDS011;68213;40.528;44.712;2023-08-20T04:47:48;6.15;;;2.15;;
62679;SDS011;68213;40.528;44.712;2023-08-20T04:48:49;8.73;;;2.30;;
62679;SDS011;68213;40.528;44.712;2023-08-20T04:49:49;10.68;;;2.30;;
62679;SDS011;68213;40.528;44.712;2023-08-20T04:50:50;2.60;;;2.13;;
62679;SDS011;68213;40.528;44.712;2023-08-20T04:51:51;8.13;;;2.45;;
62679;SDS011;68213;40.528;44.712;2023-08-20T04:52:51;4.60;;;2.40;;
62679;SDS011;68213;40.528;44.712;2023-08-20T04:53:52;5.78;;;2.42;;
62679;SDS011;68213;40.528;44.712;2023-08-20T04:54:53;7.85;;;2.70;;
62679;SDS011;68213;40.528;44.712;2023-08-20T04:55:53;5.43;;;2.22;;
62679;SDS011;68213;40.528;44.712;2023-08-20T04:56:54;4.05;;;2.17;;
62679;SDS011;68213;40.528;44.712;2023-08-20T04:57:55;7.80;;;2.10;;
62679;SDS011;68213;40.528;44.712;2023-08-20T04:58:56;5.80;;;2.65;;
62679;SDS011;68213;40.528;44.712;2023-08-20T04:59:57;4.45;;;2.25;;
62679;SDS011;68213;40.528;44.712;2023-08-20T05:00:57;4.28;;;2.55;;
62679;SDS011;68213;40.528;44.712;2023-08-20T05:01:58;9.05;;;2.22;;
62679;SDS011;68213;40.528;44.712;2023-08-20T05:02:59;3.58;;;2.25;;
62679;SDS011;68213;40.528;44.712;2023-08-20T05:03:59;4.22;;;2.20;;
62679;SDS011;68213;40.528;44.712;2023-08-20T05:05:01;4.68;;;2.25;;
62679;SDS011;68213;40.528;44.712;2023-08-20T05:06:03;4.13;;;2.47;;
62679;SDS011;68213;40.528;44.712;2023-08-20T05:07:04;10.70;;;2.47;;
62679;SDS011;68213;40.528;44.712;2023-08-20T05:08:05;3.75;;;2.10;;
62679;SDS011;68213;40.528;44.712;2023-08-20T05:09:06;5.32;;;2.85;;
62679;SDS011;68213;40.528;44.712;2023-08-20T05:10:07;5.18;;;2.42;;
62679;SDS011;68213;40.528;44.712;2023-08-20T05:11:08;5.05;;;2.45;;
62679;SDS011;68213;40.528;44.712;2023-08-20T05:12:09;6.13;;;2.60;;
62679;SDS011;68213;40.528;44.712;2023-08-20T05:13:10;10.27;;;2.72;;
62679;SDS011;68213;40.528;44.712;2023-08-20T05:14:11;7.95;;;2.80;;
62679;SDS011;68213;40.528;44.712;2023-08-20T05:15:12;2.90;;;2.30;;
62679;SDS011;68213;40.528;44.712;2023-08-20T05:16:12;10.13;;;2.70;;
62679;SDS011;68213;40.528;44.712;2023-08-20T05:17:13;6.47;;;2.80;;
62679;SDS011;68213;40.528;44.712;2023-08-20T05:18:14;9.00;;;2.50;;
62679;SDS011;68213;40.528;44.712;2023-08-20T05:19:14;7.93;;;2.78;;
62679;SDS011;68213;40.528;44.712;2023-08-20T05:20:15;4.22;;;2.17;;
62679;SDS011;68213;40.528;44.712;2023-08-20T05:21:16;4.43;;;2.08;;
62679;SDS011;68213;40.528;44.712;2023-08-20T05:22:16;10.02;;;3.55;;
62679;SDS011;68213;40.528;44.712;2023-08-20T05:23:17;5.35;;;2.70;;
62679;SDS011;68213;40.528;44.712;2023-08-20T05:24:17;8.40;;;2.70;;
62679;SDS011;68213;40.528;44.712;2023-08-20T05:25:18;8.15;;;2.80;;
62679;SDS011;68213;40.528;44.712;2023-08-20T05:26:21;7.35;;;2.30;;
62679;SDS011;68213;40.528;44.712;2023-08-20T05:27:22;3.75;;;2.42;;
62679;SDS011;68213;40.528;44.712;2023-08-20T05:28:23;4.95;;;2.42;;
62679;SDS011;68213;40.528;44.712;2023-08-20T05:29:24;4.78;;;2.40;;
62679;SDS011;68213;40.528;44.712;2023-08-20T05:30:24;5.57;;;2.67;;
62679;SDS011;68213;40.528;44.712;2023-08-20T05:31:25;7.03;;;2.20;;
62679;SDS011;68213;40.528;44.712;2023-08-20T05:32:26;6.60;;;2.63;;
62679;SDS011;68213;40.528;44.712;2023-08-20T05:33:27;6.47;;;2.85;;
62679;SDS011;68213;40.528;44.712;2023-08-20T05:34:27;7.90;;;2.70;;
62679;SDS011;68213;40.528;44.712;2023-08-20T05:35:28;7.55;;;2.70;;
62679;SDS011;68213;40.528;44.712;2023-08-20T05:36:29;10.00;;;2.97;;
62679;SDS011;68213;40.528;44.712;2023-08-20T05:37:29;7.28;;;2.80;;
62679;SDS011;68213;40.528;44.712;2023-08-20T05:38:30;2.88;;;2.58;;
62679;SDS011;68213;40.528;44.712;2023-08-20T05:39:35;12.38;;;2.67;;
62679;SDS011;68213;40.528;44.712;2023-08-20T05:40:38;7.82;;;2.60;;
62679;SDS011;68213;40.528;44.712;2023-08-20T05:41:39;10.05;;;2.70;;
62679;SDS011;68213;40.528;44.712;2023-08-20T05:42:39;5.22;;;2.40;;
62679;SDS011;68213;40.528;44.712;2023-08-20T05:43:40;8.52;;;2.83;;
62679;SDS011;68213;40.528;44.712;2023-08-20T05:44:41;4.53;;;2.60;;
62679;SDS011;68213;40.528;44.712;2023-08-20T05:45:42;6.18;;;2.97;;
62679;SDS011;68213;40.528;44.712;2023-08-20T05:46:43;5.88;;;2.70;;
62679;SDS011;68213;40.528;44.712;2023-08-20T05:47:43;7.68;;;2.88;;
62679;SDS011;68213;40.528;44.712;2023-08-20T05:48:44;3.40;;;2.63;;
62679;SDS011;68213;40.528;44.712;2023-08-20T05:49:45;5.55;;;2.53;;
62679;SDS011;68213;40.528;44.712;2023-08-20T05:50:45;4.75;;;2.22;;
62679;SDS011;68213;40.528;44.712;2023-08-20T05:51:46;5.05;;;2.50;;
62679;SDS011;68213;40.528;44.712;2023-08-20T05:52:47;3.75;;;2.47;;
62679;SDS011;68213;40.528;44.712;2023-08-20T05:53:48;5.53;;;2.70;;
62679;SDS011;68213;40.528;44.712;2023-08-20T05:54:49;8.30;;;3.45;;
62679;SDS011;68213;40.528;44.712;2023-08-20T05:55:50;9.48;;;2.92;;
62679;SDS011;68213;40.528;44.712;2023-08-20T05:56:50;14.68;;;2.65;;
62679;SDS011;68213;40.528;44.712;2023-08-20T05:57:51;8.65;;;3.15;;
62679;SDS011;68213;40.528;44.712;2023-08-20T05:58:52;5.22;;;2.55;;
62679;SDS011;68213;40.528;44.712;2023-08-20T05:59:52;11.00;;;2.53;;
62679;SDS011;68213;40.528;44.712;2023-08-20T06:00:53;5.13;;;2.75;;
62679;SDS011;68213;40.528;44.712;2023-08-20T06:01:54;5.93;;;3.05;;
62679;SDS011;68213;40.528;44.712;2023-08-20T06:02:54;7.50;;;2.65;;
62679;SDS011;68213;40.528;44.712;2023-08-20T06:03:55;8.98;;;3.00;;
62679;SDS011;68213;40.528;44.712;2023-08-20T06:04:56;8.60;;;2.45;;
62679;SDS011;68213;40.528;44.712;2023-08-20T06:05:57;9.70;;;3.13;;
62679;SDS011;68213;40.528;44.712;2023-08-20T06:06:58;7.80;;;2.80;;
62679;SDS011;68213;40.528;44.712;2023-08-20T06:07:59;6.78;;;2.90;;
62679;SDS011;68213;40.528;44.712;2023-08-20T06:09:00;10.40;;;2.92;;
62679;SDS011;68213;40.528;44.712;2023-08-20T06:10:01;12.52;;;3.10;;
62679;SDS011;68213;40.528;44.712;2023-08-20T06:11:02;14.98;;;2.85;;
62679;SDS011;68213;40.528;44.712;2023-08-20T06:12:03;16.90;;;3.10;;